• Join FlightAware (Why Join?)
  • Login
  • US Flag 
07:19AM EST


 

Airport Tracker/Info


-or-


 

Live Flight TrackerFlight Track Log ✈ LXJ342 ✈ 01-Sep-2013 ✈ EINN / SNN - KBGR

Flight Track Log - Related Links

Times and Time Zones

All times are in EDT time to prevent confusion due to time zone crossing. See the LXJ342 flight status page for this flight to view local times or setup timezone preferences in your user account.

Time Position Orientation Groundspeed Altitude Reporting Facility
EDT Latitude Longitude Course Direction KTS MPH feet Rate Location/Type
04:39PM 53.6784 -18.9952 283° West  Level Estimated
04:40PM 53.6882 -19.1819 275° West  Level Estimated
04:41PM 53.6977 -19.3687 275° West  Level Estimated
04:42PM 53.7069 -19.5557 275° West  Level Estimated
04:43PM 53.7158 -19.7427 275° West  Level Estimated
04:44PM 53.7245 -19.9297 275° West  Level Estimated
04:45PM 53.7328 -20.1169 274° West  Level Estimated
04:46PM 53.7408 -20.3041 274° West  Level Estimated
04:47PM 53.7486 -20.4914 274° West  Level Estimated
04:48PM 53.7561 -20.6788 274° West  Level Estimated
04:49PM 53.7632 -20.8662 274° West  Level Estimated
04:50PM 53.7701 -21.0537 274° West  Level Estimated
04:51PM 53.7767 -21.2412 273° West  Level Estimated
04:52PM 53.7830 -21.4288 273° West  Level Estimated
04:53PM 53.7890 -21.6165 273° West  Level Estimated
04:53PM 50.0000 -20.0000 274° West 462 532 36,000  Level ETMS Enhanced Traffic Management System
04:54PM 53.7947 -21.8042 273° West  Level Estimated
04:55PM 53.8001 -21.9920 273° West  Level Estimated
04:56PM 53.8052 -22.1798 273° West  Level Estimated
04:57PM 53.8100 -22.3677 273° West  Level Estimated
04:58PM 53.8145 -22.5556 272° West  Level Estimated
04:59PM 50.0634 -21.7972 272° West 462 532 36,000  Level FlightAware Transoceanic
05:00PM 50.0688 -21.9971 272° West 462 532 36,000  Level FlightAware Transoceanic
05:01PM 50.0738 -22.1971 272° West 462 532 36,000  Level FlightAware Transoceanic
05:02PM 50.0784 -22.3972 272° West 462 532 36,000  Level FlightAware Transoceanic
05:03PM 50.0827 -22.5972 272° West 462 532 36,000  Level FlightAware Transoceanic
05:04PM 50.0867 -22.7973 272° West 462 532 36,000  Level FlightAware Transoceanic
05:05PM 50.0903 -22.9975 272° West 462 532 36,000  Level FlightAware Transoceanic
05:06PM 50.0936 -23.1977 271° West 462 532 36,000  Level FlightAware Transoceanic
05:07PM 50.0965 -23.3979 271° West 462 532 36,000  Level FlightAware Transoceanic
05:08PM 50.0991 -23.5981 271° West 462 532 36,000  Level FlightAware Transoceanic
05:09PM 50.1013 -23.7983 271° West 462 532 36,000  Level FlightAware Transoceanic
05:10PM 50.1032 -23.9986 271° West 462 532 36,000  Level FlightAware Transoceanic
05:11PM 50.1048 -24.1988 271° West 462 532 36,000  Level FlightAware Transoceanic
05:12PM 50.1060 -24.3991 270° West 462 532 36,000  Level FlightAware Transoceanic
05:13PM 50.1068 -24.5994 270° West 462 532 36,000  Level FlightAware Transoceanic
05:14PM 50.1073 -24.7997 270° West 462 532 36,000  Level FlightAware Transoceanic
05:15PM 50.1075 -25.0000 270° West 462 532 36,000  Level FlightAware Transoceanic
05:16PM 50.1073 -25.2003 270° West 462 532 36,000  Level FlightAware Transoceanic
05:17PM 50.1068 -25.4006 270° West 462 532 36,000  Level FlightAware Transoceanic
05:18PM 50.1060 -25.6009 270° West 462 532 36,000  Level FlightAware Transoceanic
05:19PM 50.1048 -25.8012 269° West 462 532 36,000  Level FlightAware Transoceanic
05:20PM 50.1032 -26.0014 269° West 462 532 36,000  Level FlightAware Transoceanic
05:21PM 50.1013 -26.2017 269° West 462 532 36,000  Level FlightAware Transoceanic
05:22PM 50.0991 -26.4019 269° West 462 532 36,000  Level FlightAware Transoceanic
05:23PM 50.0965 -26.6021 269° West 462 532 36,000  Level FlightAware Transoceanic
05:24PM 50.0936 -26.8023 269° West 462 532 36,000  Level FlightAware Transoceanic
05:25PM 50.0903 -27.0025 268° West 462 532 36,000  Level FlightAware Transoceanic
05:26PM 50.0867 -27.2027 268° West 462 532 36,000  Level FlightAware Transoceanic
05:27PM 50.0827 -27.4028 268° West 462 532 36,000  Level FlightAware Transoceanic
05:28PM 50.0784 -27.6028 268° West 462 532 36,000  Level FlightAware Transoceanic
05:29PM 50.0738 -27.8029 268° West 462 532 36,000  Level FlightAware Transoceanic
05:30PM 50.0688 -28.0029 268° West 462 532 36,000  Level FlightAware Transoceanic
05:31PM 50.0634 -28.2028 268° West 462 532 36,000  Level FlightAware Transoceanic
05:32PM 50.0578 -28.4027 267° West 462 532 36,000  Level FlightAware Transoceanic
05:33PM 50.0518 -28.6026 267° West 462 532 36,000  Level FlightAware Transoceanic
05:34PM 50.0454 -28.8024 267° West 462 532 36,000  Level FlightAware Transoceanic
05:35PM 50.0387 -29.0021 267° West 462 532 36,000  Level FlightAware Transoceanic
05:36PM 50.0316 -29.2019 267° West 462 532 36,000  Level FlightAware Transoceanic
05:37PM 50.0242 -29.4015 267° West 462 532 36,000  Level FlightAware Transoceanic
05:38PM 50.0165 -29.6010 266° West 462 532 36,000  Level FlightAware Transoceanic
05:39PM 50.0084 -29.8006 266° West 462 532 36,000  Level FlightAware Transoceanic
05:40PM 50.0012 -29.9729 266° West  Level FlightAware Approximate
05:41PM 49.9937 -30.1453 266° West  Level FlightAware Approximate
05:42PM 49.9932 -30.1180 265° West  Level FlightAware Approximate
05:43PM 49.9831 -30.2900 265° West  Level FlightAware Approximate
05:44PM 49.9728 -30.4619 265° West  Level FlightAware Approximate
05:45PM 49.9622 -30.6338 265° West  Level FlightAware Approximate
05:45PM 50.0000 -30.0000 265° West 429 494 36,000  Level ETMS Enhanced Traffic Management System
05:45PM 50.0000 -30.0000 265° West 429 494 36,000  Level ETMS Enhanced Traffic Management System
05:46PM 49.9513 -30.8055 264° West  Level FlightAware Approximate
05:47PM 49.9402 -30.9772 264° West  Level FlightAware Approximate
05:48PM 49.9288 -31.1488 264° West  Level FlightAware Approximate
05:49PM 49.9172 -31.3203 264° West  Level FlightAware Approximate
05:50PM 49.9053 -31.4917 264° West  Level FlightAware Approximate
05:51PM 49.9086 -31.4776 264° West 429 494 36,000  Level FlightAware Transoceanic
05:52PM 49.8959 -31.6619 264° West 429 494 36,000  Level FlightAware Transoceanic
05:53PM 49.8828 -31.8461 264° West 429 494 36,000  Level FlightAware Transoceanic
05:54PM 49.8695 -32.0301 264° West 429 494 36,000  Level FlightAware Transoceanic
05:55PM 49.8559 -32.2141 263° West 429 494 36,000  Level FlightAware Transoceanic
05:56PM 49.8420 -32.3980 263° West 429 494 36,000  Level FlightAware Transoceanic
05:57PM 49.8278 -32.5818 263° West 429 494 36,000  Level FlightAware Transoceanic
05:58PM 49.8133 -32.7654 263° West 429 494 36,000  Level FlightAware Transoceanic
05:59PM 49.7985 -32.9490 263° West 429 494 36,000  Level FlightAware Transoceanic
06:00PM 49.7835 -33.1324 263° West 429 494 36,000  Level FlightAware Transoceanic
06:01PM 49.7681 -33.3158 263° West 429 494 36,000  Level FlightAware Transoceanic
06:02PM 49.7524 -33.4990 262° West 429 494 36,000  Level FlightAware Transoceanic
06:03PM 49.7365 -33.6821 262° West 429 494 36,000  Level FlightAware Transoceanic
06:04PM 49.7203 -33.8650 262° West 429 494 36,000  Level FlightAware Transoceanic
06:05PM 49.7038 -34.0479 262° West 429 494 36,000  Level FlightAware Transoceanic
06:06PM 49.6870 -34.2306 262° West 429 494 36,000  Level FlightAware Transoceanic
06:07PM 49.6699 -34.4132 262° West 429 494 36,000  Level FlightAware Transoceanic
06:08PM 49.6525 -34.5956 262° West 429 494 36,000  Level FlightAware Transoceanic
06:09PM 49.6349 -34.7780 261° West 429 494 36,000  Level FlightAware Transoceanic
06:10PM 49.6169 -34.9602 261° West 429 494 36,000  Level FlightAware Transoceanic
06:11PM 49.5987 -35.1422 261° West 429 494 36,000  Level FlightAware Transoceanic
06:12PM 49.5802 -35.3242 261° West 429 494 36,000  Level FlightAware Transoceanic
06:13PM 49.5614 -35.5059 261° West 429 494 36,000  Level FlightAware Transoceanic
06:14PM 49.5423 -35.6876 261° West 429 494 36,000  Level FlightAware Transoceanic
06:15PM 49.5229 -35.8691 261° West 429 494 36,000  Level FlightAware Transoceanic
06:16PM 49.5033 -36.0504 260° West 429 494 36,000  Level FlightAware Transoceanic
06:17PM 49.4833 -36.2317 260° West 429 494 36,000  Level FlightAware Transoceanic
06:18PM 49.4631 -36.4127 260° West 429 494 36,000  Level FlightAware Transoceanic
06:19PM 49.4426 -36.5936 260° West 429 494 36,000  Level FlightAware Transoceanic
06:20PM 49.4218 -36.7744 260° West 429 494 36,000  Level FlightAware Transoceanic
06:21PM 49.4007 -36.9550 260° West 429 494 36,000  Level FlightAware Transoceanic
06:22PM 49.3794 -37.1354 260° West 429 494 36,000  Level FlightAware Transoceanic
06:23PM 49.3578 -37.3157 259° West 429 494 36,000  Level FlightAware Transoceanic
06:24PM 49.3359 -37.4959 259° West 429 494 36,000  Level FlightAware Transoceanic
06:25PM 49.3137 -37.6758 259° West 429 494 36,000  Level FlightAware Transoceanic
06:26PM 49.2912 -37.8557 259° West 429 494 36,000  Level FlightAware Transoceanic
06:27PM 49.2685 -38.0353 259° West 429 494 36,000  Level FlightAware Transoceanic
06:28PM 49.2454 -38.2148 259° West 429 494 36,000  Level FlightAware Transoceanic
06:29PM 49.2221 -38.3941 259° West 429 494 36,000  Level FlightAware Transoceanic
06:30PM 49.1986 -38.5732 259° West 429 494 36,000  Level FlightAware Transoceanic
06:31PM 49.1747 -38.7522 258° West 429 494 36,000  Level FlightAware Transoceanic
06:32PM 49.1506 -38.9310 258° West 429 494 36,000  Level FlightAware Transoceanic
06:33PM 49.1262 -39.1096 258° West 429 494 36,000  Level FlightAware Transoceanic
06:34PM 49.1015 -39.2880 258° West 429 494 36,000  Level FlightAware Transoceanic
06:35PM 49.0765 -39.4663 258° West 429 494 36,000  Level FlightAware Transoceanic
06:36PM 49.0513 -39.6444 258° West 429 494 36,000  Level FlightAware Transoceanic
06:37PM 49.0258 -39.8223 258° West 429 494 36,000  Level FlightAware Transoceanic
06:38PM 49.0018 -39.9876 258° West  Level FlightAware Approximate
06:39PM 48.9776 -40.1527 257° West  Level FlightAware Approximate
06:40PM 48.9787 -40.1401 257° West  Level FlightAware Approximate
06:41PM 48.9534 -40.3047 257° West  Level FlightAware Approximate
06:42PM 48.9279 -40.4693 257° West  Level FlightAware Approximate
06:42PM 49.0000 -40.0000 257° West 405 466 36,000  Level ETMS Enhanced Traffic Management System
06:43PM 48.9021 -40.6336 257° West  Level FlightAware Approximate
06:44PM 48.8761 -40.7978 257° West  Level FlightAware Approximate
06:45PM 48.8499 -40.9618 256° West  Level FlightAware Approximate
06:46PM 48.8235 -41.1256 256° West  Level FlightAware Approximate
06:47PM 48.7968 -41.2893 256° West  Level FlightAware Approximate
06:48PM 48.7645 -41.4981 256° West 405 466 36,000  Level FlightAware Transoceanic
06:49PM 48.7371 -41.6637 256° West 405 466 36,000  Level FlightAware Transoceanic
06:50PM 48.7095 -41.8291 256° West 405 466 36,000  Level FlightAware Transoceanic
06:51PM 48.6817 -41.9943 256° West 405 466 36,000  Level FlightAware Transoceanic
06:52PM 48.6536 -42.1593 255° West 405 466 36,000  Level FlightAware Transoceanic
06:53PM 48.6253 -42.3241 255° West 405 466 36,000  Level FlightAware Transoceanic
06:54PM 48.5968 -42.4888 255° West 405 466 36,000  Level FlightAware Transoceanic
06:55PM 48.5680 -42.6533 255° West 405 466 36,000  Level FlightAware Transoceanic
06:56PM 48.5390 -42.8176 255° West 405 466 36,000  Level FlightAware Transoceanic
06:57PM 48.5097 -42.9816 255° West 405 466 36,000  Level FlightAware Transoceanic
06:58PM 48.4803 -43.1455 255° West 405 466 36,000  Level FlightAware Transoceanic
06:59PM 48.4506 -43.3093 255° West 405 466 36,000  Level FlightAware Transoceanic
07:00PM 48.4206 -43.4728 255° West 405 466 36,000  Level FlightAware Transoceanic
07:01PM 48.3904 -43.6361 254° West 405 466 36,000  Level FlightAware Transoceanic
07:02PM 48.3600 -43.7992 254° West 405 466 36,000  Level FlightAware Transoceanic
07:03PM 48.3294 -43.9622 254° West 405 466 36,000  Level FlightAware Transoceanic
07:04PM 48.2985 -44.1249 254° West 405 466 36,000  Level FlightAware Transoceanic
07:05PM 48.2674 -44.2875 254° West 405 466 36,000  Level FlightAware Transoceanic
07:06PM 48.2361 -44.4498 254° West 405 466 36,000  Level FlightAware Transoceanic
07:07PM 48.2046 -44.6119 254° West 405 466 36,000  Level FlightAware Transoceanic
07:08PM 48.1728 -44.7739 254° West 405 466 36,000  Level FlightAware Transoceanic
07:09PM 48.1408 -44.9356 253° West 405 466 36,000  Level FlightAware Transoceanic
07:10PM 48.1086 -45.0972 253° West 405 466 36,000  Level FlightAware Transoceanic
07:11PM 48.0761 -45.2585 253° West 405 466 36,000  Level FlightAware Transoceanic
07:12PM 48.0434 -45.4197 253° West 405 466 36,000  Level FlightAware Transoceanic
07:13PM 48.0105 -45.5806 253° West 405 466 36,000  Level FlightAware Transoceanic
07:14PM 47.9774 -45.7413 253° West 405 466 36,000  Level FlightAware Transoceanic
07:15PM 47.9440 -45.9018 253° West 405 466 36,000  Level FlightAware Transoceanic
07:16PM 47.9104 -46.0621 253° West 405 466 36,000  Level FlightAware Transoceanic
07:17PM 47.8766 -46.2222 252° West 405 466 36,000  Level FlightAware Transoceanic
07:18PM 47.8426 -46.3821 252° West 405 466 36,000  Level FlightAware Transoceanic
07:19PM 47.8084 -46.5418 252° West 405 466 36,000  Level FlightAware Transoceanic
07:20PM 47.7739 -46.7013 252° West 405 466 36,000  Level FlightAware Transoceanic
07:21PM 47.7392 -46.8605 252° West 405 466 36,000  Level FlightAware Transoceanic
07:22PM 47.7043 -47.0196 252° West 405 466 36,000  Level FlightAware Transoceanic
07:23PM 47.6692 -47.1784 252° West 405 466 36,000  Level FlightAware Transoceanic
07:24PM 47.6338 -47.3370 252° West 405 466 36,000  Level FlightAware Transoceanic
07:25PM 47.5983 -47.4954 252° West 405 466 36,000  Level FlightAware Transoceanic
07:26PM 47.5625 -47.6536 251° West 405 466 36,000  Level FlightAware Transoceanic
07:27PM 47.5265 -47.8116 251° West 405 466 36,000  Level FlightAware Transoceanic
07:28PM 47.4903 -47.9693 251° West 405 466 36,000  Level FlightAware Transoceanic
07:29PM 47.4538 -48.1269 251° West 405 466 36,000  Level FlightAware Transoceanic
07:30PM 47.4172 -48.2842 251° West 405 466 36,000  Level FlightAware Transoceanic
07:31PM 47.3803 -48.4413 251° West 405 466 36,000  Level FlightAware Transoceanic
07:32PM 47.3432 -48.5981 251° West 405 466 36,000  Level FlightAware Transoceanic
07:33PM 47.3060 -48.7548 251° West 405 466 36,000  Level FlightAware Transoceanic
07:34PM 47.2685 -48.9112 250° West 405 466 36,000  Level FlightAware Transoceanic
07:35PM 47.2307 -49.0674 250° West 405 466 36,000  Level FlightAware Transoceanic
07:36PM 47.1928 -49.2234 250° West 405 466 36,000  Level FlightAware Transoceanic
07:37PM 47.1547 -49.3792 250° West 405 466 36,000  Level FlightAware Transoceanic
07:38PM 47.1163 -49.5347 250° West 405 466 36,000  Level FlightAware Transoceanic
07:39PM 47.0778 -49.6900 250° West 405 466 36,000  Level FlightAware Transoceanic
07:40PM 47.0390 -49.8451 250° West 405 466 36,000  Level FlightAware Transoceanic
07:41PM 47.0005 -49.9979 250° West  Level FlightAware Approximate
07:42PM 46.9620 -50.1506 250° West  Level FlightAware Approximate
07:43PM 46.9799 -50.1556 259° West  Level FlightAware Approximate
07:44PM 46.9590 -50.3154 259° West  Level FlightAware Approximate
07:45PM 46.9376 -50.4768 259° West  Level FlightAware Approximate
07:45PM 47.0000 -50.0000 259° West 356 410 36,000  Level ETMS Enhanced Traffic Management System
07:46PM 46.9160 -50.6380 259° West  Level FlightAware Approximate
07:46PM 46.9000 -50.5000 259° West 400 460 36,000  Level Gander Center
07:47PM 46.8942 -50.7991 259° West  Level FlightAware Approximate
07:47PM 46.9000 -50.6500 270° West 390 449 36,800  Level Gander Center
07:48PM 46.8722 -50.9601 259° West  Level FlightAware Approximate
07:48PM 46.8833 -50.8000 261° West 390 449 37,600  Level Gander Center
07:49PM 46.8513 -51.1213 260° West  Level FlightAware Approximate
07:49PM 46.8833 -50.9833 270° West 390 449 38,200  Level Gander Center
07:50PM 46.8306 -51.2825 259° West  Level FlightAware Approximate
07:50PM 46.8833 -51.1333 270° West 390 449 38,800  Level Gander Center
07:51PM 46.8733 -50.9516 259° West  Level FlightAware Approximate
07:51PM 46.8833 -51.3000 270° West 390 449 39,400  Level Gander Center
07:52PM 46.8833 -51.4500 270° West 380 437 40,000 300 Climbing Gander Center
07:53PM 46.8500 -51.6000 252° West 380 437 40,000  Level Gander Center
07:54PM 46.8500 -51.7500 270° West 390 449 40,000  Level Gander Center
07:55PM 46.8500 -51.9167 270° West 390 449 40,000  Level Gander Center
07:56PM 46.8500 -52.0667 270° West 380 437 40,000  Level Gander Center
07:57PM 46.8333 -52.2167 261° West 390 449 40,000  Level Gander Center
07:58PM 46.8167 -52.3833 262° West 380 437 40,000  Level Gander Center
07:59PM 46.8167 -52.5333 270° West 380 437 40,000  Level Gander Center
08:00PM 46.8167 -52.6833 270° West 380 437 40,000  Level Gander Center
08:01PM 46.8000 -52.8333 261° West 380 437 40,000  Level Gander Center
08:02PM 46.8000 -52.9833 270° West 380 437 40,000  Level Gander Center
08:03PM 46.7833 -53.1500 262° West 380 437 40,000  Level Gander Center
08:04PM 46.7667 -53.3000 261° West 380 437 40,000  Level Gander Center
08:05PM 46.7667 -53.4500 270° West 380 437 40,000  Level Gander Center
08:06PM 46.7667 -53.6000 270° West 380 437 40,000  Level Gander Center
08:07PM 46.7500 -53.7500 261° West 380 437 40,000  Level Gander Center
08:08PM 46.7333 -53.9167 262° West 380 437 40,000  Level Gander Center
08:09PM 46.7333 -54.0667 270° West 380 437 40,000  Level Gander Center
08:10PM 46.7167 -54.2167 261° West 380 437 40,000  Level Gander Center
08:11PM 46.7167 -54.3667 270° West 370 426 40,000  Level Gander Center
08:12PM 46.7000 -54.5167 261° West 370 426 40,000  Level Gander Center
08:13PM 46.7000 -54.6833 270° West 370 426 40,000  Level Gander Center
08:14PM 46.6667 -54.8000 247° West 370 426 40,000  Level Gander Center
08:15PM 46.6667 -54.9833 270° West 370 426 40,000  Level Gander Center
08:16PM 46.6500 -55.1333 261° West 370 426 40,000  Level Gander Center
08:17PM 46.6500 -55.2667 270° West 370 426 40,000  Level Gander Center
08:18PM 46.6333 -55.4167 261° West 370 426 40,000  Level Gander Center
08:19PM 46.6333 -55.5667 270° West 370 426 40,000  Level Gander Center
08:20PM 46.6000 -55.7167 252° West 370 426 40,000  Level Gander Center
08:21PM 46.6000 -55.8667 270° West 360 414 40,000  Level Gander Center
08:22PM 46.5833 -56.0167 261° West 370 426 40,000  Level Gander Center
08:23PM 46.5833 -56.1500 270° West 370 426 40,000  Level Gander Center
08:24PM 46.5667 -56.3000 261° West 370 426 40,000  Level Gander Center
08:25PM 46.5500 -56.4500 261° West 370 426 40,000  Level Gander Center
08:26PM 46.5500 -56.6167 270° West 380 437 40,000  Level Gander Center
08:27PM 46.5333 -56.7667 261° West 380 437 40,000  Level Gander Center
08:28PM 46.5000 -56.9167 252° West 380 437 40,000  Level Gander Center
08:29PM 46.5000 -57.0667 270° West 390 449 40,000  Level Gander Center
08:30PM 46.4833 -57.2167 261° West 380 437 40,000  Level Gander Center
08:31PM 46.4833 -57.3833 270° West 380 437 40,000  Level Gander Center
08:32PM 46.4667 -57.5333 261° West 380 437 40,000  Level Gander Center
08:33PM 46.4500 -57.6667 260° West 380 437 40,000  Level Gander Center
08:34PM 46.4167 -57.8167 252° West 380 437 40,000  Level Gander Center
08:35PM 46.4167 -57.9833 270° West 380 437 40,000  Level Gander Center
08:36PM 46.4000 -58.1333 261° West 390 449 40,000  Level Gander Center
08:37PM 46.3833 -58.3000 262° West 380 437 40,000  Level Gander Center
08:38PM 46.3667 -58.4500 261° West 380 437 40,000  Level Gander Center
08:39PM 46.3500 -58.6000 261° West 380 437 40,000  Level Gander Center
08:40PM 46.3333 -58.7500 261° West 380 437 40,000  Level Gander Center
08:41PM 46.3167 -58.9167 262° West 380 437 40,000  Level Gander Center
08:42PM 46.3000 -59.0667 261° West 390 449 40,000  Level Gander Center
08:43PM 46.2833 -59.2000 260° West 390 449 40,000  Level Gander Center
08:44PM 46.2833 -59.3667 270° West 390 449 40,000  Level Gander Center
08:45PM 46.2500 -59.5167 252° West 390 449 40,000  Level Gander Center
08:46PM 46.2333 -59.6833 262° West 390 449 40,000  Level Gander Center
08:47PM 46.2167 -59.8333 261° West 390 449 40,000  Level Gander Center
08:48PM 46.2000 -60.0000 262° West 390 449 40,000  Level Gander Center
08:49PM 46.1833 -60.1500 261° West 390 449 40,000  Level Gander Center
08:50PM 46.1500 -60.3167 254° West 390 449 40,000  Level Gander Center
08:51PM 46.1333 -60.4667 261° West 400 460 40,000  Level Gander Center
08:52PM 46.1333 -60.6333 270° West 400 460 40,000  Level Gander Center
08:53PM 46.1167 -60.7833 261° West 400 460 40,000  Level Gander Center
08:54PM 46.0833 -60.9500 254° West 400 460 40,000  Level Gander Center
08:55PM 46.0667 -61.0833 260° West 400 460 40,000  Level Gander Center
08:56PM 46.0500 -61.2500 262° West 400 460 40,000  Level Gander Center
08:57PM 46.0333 -61.4000 261° West 400 460 40,000  Level Gander Center
08:58PM 46.0000 -61.5667 254° West 400 460 40,000  Level Gander Center
08:59PM 45.9833 -61.7333 262° West 400 460 40,000  Level Gander Center
09:00PM 45.9667 -61.8833 261° West 400 460 40,000  Level Gander Center
09:01PM 45.9333 -62.0500 254° West 400 460 40,000  Level Gander Center
09:02PM 45.9167 -62.2000 261° West 400 460 40,000  Level Gander Center
09:03PM 45.8833 -62.3667 254° West 400 460 40,000  Level Gander Center
09:04PM 45.8667 -62.5333 262° West 400 460 40,000  Level Gander Center
09:05PM 45.8500 -62.6667 260° West 400 460 40,000  Level Gander Center
09:06PM 45.8333 -62.8333 262° West 400 460 40,000  Level Gander Center
09:07PM 45.8000 -62.9833 252° West 400 460 40,000  Level Gander Center
09:08PM 45.7833 -63.1500 262° West 400 460 40,000  Level Gander Center
09:09PM 45.7500 -63.3667 258° West 400 460 40,000  Level Moncton Center
09:10PM 45.7167 -63.5167 252° West 400 460 40,000  Level Moncton Center
09:11PM 45.7000 -63.6833 262° West 400 460 40,000  Level Moncton Center
09:12PM 45.6667 -63.8167 250° West 400 460 40,000  Level Moncton Center
09:13PM 45.6500 -63.9833 262° West 400 460 40,000  Level Moncton Center
09:14PM 45.6167 -64.1333 252° West 400 460 40,000  Level Moncton Center
09:15PM 45.6000 -64.3000 262° West 400 460 40,000  Level Moncton Center
09:16PM 45.5667 -64.4500 252° West 400 460 40,000  Level Moncton Center
09:17PM 45.5500 -64.6167 262° West 400 460 40,000  Level Moncton Center
09:18PM 45.5333 -64.7500 260° West 400 460 40,000  Level Moncton Center
09:19PM 45.5000 -64.9167 254° West 400 460 40,000  Level Moncton Center
09:20PM 45.4833 -65.0667 261° West 400 460 40,000  Level Moncton Center
09:21PM 45.4500 -65.2333 254° West 400 460 40,000  Level Moncton Center
09:22PM 45.4333 -65.3667 260° West 390 449 40,000  Level Moncton Center
09:23PM 45.4000 -65.5333 254° West 400 460 40,000  Level Moncton Center
09:24PM 45.3833 -65.6833 261° West 400 460 40,000  Level Moncton Center
09:25PM 45.3500 -65.8500 254° West 400 460 40,000  Level Moncton Center
09:26PM 45.3333 -65.9833 260° West 400 460 40,000  Level Moncton Center
09:27PM 45.3000 -66.1500 254° West 400 460 40,000  Level Moncton Center
09:28PM 45.2667 -66.3000 253° West 400 460 40,000  Level Moncton Center
09:29PM 45.2333 -66.4667 254° West 400 460 40,000 -1,080 Level Moncton Center
09:30PM 45.2167 -66.6000 260° West 410 472 37,900 -2,400 Descending Moncton Center
09:31PM 45.1833 -66.7667 254° West 410 472 35,200 -2,640 Descending Moncton Center
09:32PM 45.1667 -66.9333 262° West 410 472 32,700 -2,520 Descending Moncton Center
09:33PM 45.1167 -67.0833 245° Southwest 410 472 30,200 -2,700 Descending Moncton Center
09:34PM 45.1000 -67.2333 261° West 420 483 27,300 -2,700 Descending Moncton Center
09:35PM 45.0956 -67.3550 267° West 425 489 25,400 -2,640 Descending Boston Center
09:36PM 45.0667 -67.5075 255° West 425 489 22,600 -2,940 Descending Boston Center
09:37PM 45.0397 -67.6597 256° West 419 482 19,600 -3,000 Descending Boston Center
09:38PM 45.0119 -67.8003 254° West 400 460 16,700 -2,940 Descending Boston Center
09:39PM 44.9819 -67.9378 253° West 378 435 13,700 -2,940 Descending Boston Center
09:40PM 44.9428 -68.0550 245° Southwest 357 411 11,000 -2,100 Descending Boston Center
09:41PM 44.9056 -68.1722 246° West 319 367 9,600 -1,260 Descending Boston Center
09:42PM 44.8717 -68.2714 244° Southwest 295 339 8,500 -1,140 Descending Boston Center
09:43PM 44.8417 -68.3644 246° West 283 326 7,400 -1,200 Descending Boston Center
09:44PM 44.8094 -68.4603 245° Southwest 283 326 6,100 -1,440 Descending Boston Center
09:45PM 44.7792 -68.5472 244° Southwest 273 314 4,600 -1,560 Descending Boston Center
09:46PM 44.7572 -68.6394 252° West 255 293 3,000 -1,320 Descending Boston Center
09:47PM 44.7497 -68.7306 263° West 249 287 2,000 -900 Descending Boston Center
09:48PM 44.7722 -68.7817 302° West 188 216 1,200 -900 Descending Boston Center
09:49PM 44.7942 -68.8156 312° West 156 180 300 2,340 Descending Boston Center
09:50PM 44.8106 -68.8789 290° West 156 180 6,000 2,820 Climbing Boston Center
09:51PM 44.8292 -68.9364 295° West 156 180 6,000  Level Boston Center
09:52PM 44.8453 -68.9939 292° West 156 180 6,000  Level Boston Center
09:54PM 44.8074 -68.8281 108° East  Level Estimated
10:01PM 44.8074 -68.8281 10° North  Level Estimated
10:02PM 44.8074 -68.8281 10° North  Level Estimated